Date TemperatureHighC TemperatureAvgC TemperatureLowC DewpointHighC DewpointAvgC DewpointLowC HumidityHigh HumidityAvg HumidityLow PressureMaxhPa PressureMinhPa WindSpeedMaxKMH WindSpeedAvgKMH GustSpeedMaxKMH PrecipitationSumCM
2012-1-1 16.8 8.6 1.2 8.9 -2.7 -7.4 92 47 26 1008 1002 12 2 12 0.00
2012-1-2 15.3 13.1 9.8 11.7 9.5 7.9 95 79 66 1006 1000 19 5 19 0.30
2012-1-3 17.9 10.3 5.1 12.1 6.8 3.8 98 82 47 1010 1000 15 2 15 1.09
2012-1-4 12.4 7.6 3.4 11.2 6.4 2.8 98 92 74 1009 998 15 3 15 0.53
2012-1-5 14.2 9.7 2.0 9.1 5.3 1.1 98 76 52 1001 980 32 4 32 0.20
2012-1-6 15.0 8.9 -1.3 8.7 -5.8 -10.3 83 37 25 1002 978 29 4 29 0.20
2012-1-7 16.9 7.4 -1.2 5.4 -1.8 -8.0 91 56 25 1004 999 14 2 14 0.00
2012-1-8 17.2 9.2 2.2 12.0 4.8 0.3 96 76 50 1002 998 10 2 10 0.00
2012-1-9 17.9 6.7 0.8 3.4 -3.1 -6.4 94 54 23 1011 1001 8 2 10 0.00
2012-1-10 16.7 7.9 0.6 6.3 1.3 -6.5 88 64 44 1015 1009 15 3 15 0.00
2012-1-11 18.8 7.8 0.8 -0.2 -4.1 -6.5 70 46 24 1017 1014 11 2 11 0.00
2012-1-12 17.8 6.4 -0.2 8.8 0.9 -6.3 94 70 43 1016 1010 12 2 13 0.00
2012-1-13 16.7 8.9 4.2 10.2 4.2 2.3 98 75 45 1010 1000 7 1 7 0.00
2012-1-14 15.9 9.1 4.7 5.7 -3.5 -9.9 85 45 24 1003 1000 21 5 21 0.00
2012-1-15 15.6 6.9 1.8 -4.4 -7.5 -12.3 55 36 25 1002 1000 16 3 16 0.00
2012-1-16 9.5 5.3 2.1 -1.9 -4.8 -7.1 66 49 37 1008 1001 11 3 11 0.00
2012-1-17 14.1 5.4 0.0 0.1 -4.8 -10.3 76 50 29 1013 1001 11 2 11 0.00
2012-1-18 16.8 6.3 1.4 3.5 0.0 -1.8 89 67 35 1018 1012 11 2 11 0.00
2012-1-19 14.9 9.4 1.6 5.4 3.1 -1.3 82 66 45 1017 1002 11 3 11 0.00
2012-1-20 18.9 11.9 6.4 7.2 4.8 2.3 83 63 39 1009 997 21 4 21 0.00
2012-1-21 18.4 9.2 2.5 13.2 4.8 1.2 98 78 42 1002 997 15 3 15 0.00
2012-1-22 17.8 10.9 7.4 8.7 7.1 4.9 97 79 49 1000 996 13 3 13 0.00
2012-1-23 18.9 11.1 7.4 11.1 7.0 3.2 93 78 47 1000 997 14 3 14 0.00
2012-1-24 19.5 10.5 4.4 13.7 3.1 -5.7 96 65 35 1001 995 13 2 13 0.00
2012-1-25 15.8 7.1 0.1 -3.0 -6.7 -11.3 56 38 22 1004 1000 20 3 21 0.00
2012-1-26 13.9 4.1 -3.7 -3.8 -7.8 -12.7 54 43 28 1005 1002 9 2 9 0.00
2012-1-27 12.9 8.2 3.5 -1.2 -3.1 -5.4 66 46 35 1008 1004 10 2 10 0.00
2012-1-28 15.7 8.0 1.7 1.4 -1.8 -4.1 68 51 35 1008 1002 13 3 13 0.00
2012-1-29 11.2 7.9 6.2 -1.2 -2.5 -3.9 55 48 40 1002 998 27 7 27 0.00
2012-1-30 12.1 6.4 2.1 -2.1 -4.8 -8.1 56 45 36 1002 999 28 8 28 0.00
2012-1-31 6.9 4.2 1.2 2.4 -4.1 -7.9 90 56 44 1002 992 26 5 26 0.10
2012-2-1 5.1 2.1 0.3 3.1 -3.2 -7.6 94 69 51 993 985 28 8 28 1.37
2012-2-2 3.1 2.0 0.5 -4.7 -6.5 -8.9 63 54 47 996 992 28 9 28 0.00
2012-2-3 2.0 -0.3 -1.7 -8.4 -10.0 -11.6 53 48 41 995 992 30 9 31 0.00
2012-2-4 2.8 -1.2 -3.7 -9.7 -11.3 -12.6 53 46 39 1003 994 23 6 23 0.00
2012-2-5 6.7 0.4 -3.3 -7.9 -10.6 -12.6 52 44 33 1004 1000 26 6 26 0.00
2012-2-6 5.7 -0.1 -4.7 -9.4 -11.6 -13.4 53 42 32 1000 990 22 6 22 0.00
2012-2-7 5.9 0.6 -4.7 -7.8 -10.3 -13.2 53 44 35 995 987 24 5 24 0.00
2012-2-8 8.8 2.9 0.0 -5.4 -8.3 -11.7 51 44 35 1004 995 28 7 28 0.00
2012-2-9 14.9 3.8 -4.5 -7.5 -11.8 -14.5 49 33 19 1004 997 19 3 19 0.00
2012-2-10 3.8 0.3 -1.9 -3.9 -8.2 -12.6 78 54 30 998 994 43 10 43 0.00
2012-2-11 6.0 -0.2 -2.5 -7.3 -10.1 -12.0 59 48 37 1000 993 23 6 23 0.00
2012-2-12 7.0 0.3 -3.6 -7.4 -10.2 -12.1 55 46 35 1001 998 18 5 18 0.00
2012-2-13 10.5 1.5 -3.3 -7.3 -10.3 -12.6 54 42 28 1002 996 15 4 15 0.00
2012-2-14 9.7 0.7 -5.1 -8.1 -11.2 -13.2 56 42 28 1000 995 24 4 24 0.00
2012-2-15 13.3 3.8 -4.1 -3.6 -7.5 -13.1 64 45 29 999 990 16 3 16 0.00
2012-2-16 19.1 5.7 -1.2 3.7 -1.9 -6.1 81 60 30 1004 992 9 2 9 0.00
2012-2-17 17.2 7.7 1.2 4.3 -0.9 -6.1 87 57 30 1007 1003 20 3 20 0.00
2012-2-18 17.6 8.8 3.2 8.1 4.0 1.2 96 75 40 1006 1004 16 3 16 0.00
2012-2-19 16.9 9.8 3.8 8.7 4.5 0.1 96 73 35 1005 1002 15 3 15 0.20
2012-2-20 11.7 7.7 5.7 7.6 4.8 0.6 92 82 66 1009 1002 24 6 24 0.84
2012-2-21 16.3 9.1 5.8 1.5 -1.1 -5.2 71 50 35 1010 1007 32 10 32 0.00
2012-2-22 18.7 11.5 7.5 1.2 -2.7 -5.5 48 37 28 1007 1002 35 10 35 0.00
2012-2-23 22.4 11.3 3.0 2.8 -2.7 -6.4 57 39 22 1008 1004 15 4 15 0.00
2012-2-24 22.4 9.6 1.3 3.7 -2.8 -5.7 70 46 22 1010 1008 16 3 16 0.00
2012-2-25 20.4 9.7 1.9 9.8 1.7 -5.1 91 60 34 1010 1000 15 2 15 0.00
2012-2-26 18.6 10.3 5.2 7.3 2.8 -5.1 81 62 38 1002 994 28 3 28 0.00
2012-2-27 19.6 9.7 2.3 2.2 -3.2 -6.2 65 42 25 1007 1002 17 3 17 0.00
2012-2-28 18.7 8.9 3.1 5.7 2.0 -3.0 87 65 40 1008 1004 17 3 17 0.00
2012-2-29 20.4 9.3 2.4 10.4 3.9 1.1 96 73 35 1007 1003 13 2 13 0.00
2012-3-1 24.9 11.4 2.3 7.9 3.5 -1.5 86 63 31 1010 1004 12 2 12 0.00
2012-3-2 23.0 11.2 3.5 13.2 5.2 2.2 97 71 34 1011 1008 10 2 10 0.00
2012-3-3 21.0 10.9 2.6 11.9 4.2 0.8 96 67 34 1010 1006 15 2 15 0.00
2012-3-4 21.9 12.3 6.4 9.1 5.4 3.1 85 65 35 1008 1002 21 2 21 0.00
2012-3-5 18.7 10.9 3.6 9.7 5.3 1.9 96 72 39 1002 995 13 2 13 0.00
2012-3-6 13.5 9.2 7.2 7.6 3.7 -0.2 84 69 49 1005 994 17 4 17 0.53
2012-3-7 19.3 10.4 2.9 1.5 -0.7 -3.6 78 50 25 1008 1004 26 5 26 0.00
2012-3-8 21.8 10.7 1.0 3.7 -1.8 -5.9 81 48 22 1005 998 22 4 23 0.00
2012-3-9 17.7 11.9 8.7 -1.7 -5.4 -9.1 36 29 26 1013 1004 43 12 43 0.00
2012-3-10 21.7 12.4 7.1 -0.9 -5.7 -9.2 39 28 19 1013 1005 28 8 28 0.00
2012-3-11 22.4 12.3 3.6 -0.8 -6.0 -12.2 41 28 21 1006 1000 25 4 25 0.00
2012-3-12 24.6 13.0 3.4 2.7 -1.8 -5.7 59 38 21 1005 1002 16 3 16 0.00
2012-3-13 24.3 13.9 5.1 1.7 -1.1 -3.2 58 38 21 1009 1004 17 4 17 0.00
2012-3-14 23.4 13.2 3.0 3.6 0.5 -3.2 77 45 23 1012 1008 20 3 20 0.00
2012-3-15 25.2 13.4 2.6 7.5 0.8 -1.9 78 47 22 1014 1010 18 3 18 0.00
2012-3-16 23.9 11.6 1.8 9.5 3.0 -0.7 90 61 23 1014 1012 12 2 12 0.00
2012-3-17 21.0 13.3 6.7 9.1 7.0 3.6 94 69 34 1014 1010 17 4 17 0.00
2012-3-18 18.0 13.9 11.5 10.8 9.3 6.4 89 75 51 1010 1006 17 4 17 0.00
2012-3-19 22.5 13.7 6.4 11.2 4.4 -4.1 93 59 23 1014 1006 17 3 17 0.00
2012-3-20 22.6 11.7 4.4 7.2 3.3 -2.1 84 58 33 1016 1014 10 2 10 0.00
2012-3-21 25.3 14.4 5.8 8.1 4.2 -2.4 88 56 22 1017 1014 13 3 13 0.00
2012-3-22 25.6 13.8 6.1 4.3 -0.7 -4.2 65 40 18 1014 1011 12 3 12 0.00
2012-3-23 23.4 14.1 5.8 8.1 2.2 -3.8 86 47 29 1011 1008 9 2 9 0.00
2012-3-24 26.7 16.7 8.7 3.2 1.0 -1.1 55 37 20 1008 1004 15 3 15 0.00
2012-3-25 25.3 16.6 6.3 11.7 1.3 -0.3 71 41 20 1009 1005 16 2 16 0.00
2012-3-26 27.3 16.9 6.7 4.2 0.8 -2.6 63 36 20 1010 1008 17 4 17 0.00
2012-3-27 27.7 16.2 6.1 3.9 -0.9 -6.3 65 34 17 1011 1007 20 4 20 0.00
2012-3-28 28.2 15.9 5.6 3.2 -0.3 -4.3 63 38 19 1010 1005 17 4 17 0.00
2012-3-29 25.8 15.3 5.8 6.7 0.6 -2.7 57 39 21 1006 998 15 3 15 0.00
2012-3-30 24.6 14.7 6.7 7.4 3.5 -1.2 70 50 26 999 994 17 3 17 0.00
2012-3-31 23.7 14.6 5.3 9.8 4.7 1.1 85 56 25 996 990 17 3 17 0.00
2012-4-1 24.0 16.2 10.8 11.7 7.9 5.4 86 62 34 995 989 14 3 14 0.00
2012-4-2 25.2 15.6 9.0 11.0 7.6 3.1 86 63 28 997 994 15 4 15 0.00
2012-4-3 22.5 15.5 10.7 13.9 9.1 4.2 96 69 34 996 993 11 3 11 0.63
2012-4-4 23.4 15.6 9.3 11.3 8.7 6.2 89 66 41 994 991 15 3 15 0.00
2012-4-5 22.5 16.3 10.1 14.1 9.4 6.4 78 65 40 995 992 13 2 13 0.00
2012-4-6 22.2 14.9 8.6 11.7 8.6 5.8 94 69 37 996 994 19 3 19 0.00
2012-4-7 21.1 13.8 9.6 14.1 7.0 1.7 94 67 32 995 987 17 3 17 0.10
2012-4-8 23.0 10.8 4.9 7.2 3.3 -1.3 86 62 27 993 984 24 4 24 0.33
2012-4-9 19.2 9.4 0.4 2.8 -1.3 -4.3 86 52 24 997 993 20 4 20 0.00
2012-4-10 20.9 12.7 5.1 7.4 3.2 -1.2 79 54 33 997 993 21 4 21 0.10
2012-4-11 19.5 13.1 8.9 14.0 6.9 2.1 95 70 35 993 983 28 6 28 1.07
2012-4-12 23.6 14.3 5.8 9.6 4.8 1.6 88 57 25 992 988 15 3 15 0.00
2012-4-13 21.0 13.5 10.2 9.9 7.0 3.2 86 67 34 989 978 14 3 14 0.30
2012-4-14 13.5 10.9 9.5 9.9 8.3 6.2 91 84 67 982 976 12 2 12 1.27
2012-4-15 21.2 13.4 9.2 13.6 6.4 1.6 97 68 31 986 980 17 4 17 0.74
2012-4-16 19.7 12.4 5.1 10.4 5.3 2.6 94 64 38 990 986 17 3 17 0.00
2012-4-17 23.5 13.3 7.7 10.3 5.9 3.2 83 63 32 992 988 15 2 15 0.10
2012-4-18 20.4 12.8 7.2 10.7 6.4 2.4 92 68 35 990 982 17 3 17 0.00
2012-4-19 22.1 13.1 6.4 9.9 5.3 1.5 91 62 28 984 982 17 4 17 0.74
2012-4-20 19.2 11.5 7.8 8.1 6.5 -2.7 84 74 34 991 983 20 2 21 0.00
2012-4-21 23.9 15.8 7.2 10.7 5.8 1.3 90 57 26 997 990 15 3 15 0.00
2012-4-22 22.4 15.9 11.6 12.6 6.8 1.7 89 59 33 997 995 19 4 19 0.00
2012-4-23 22.9 15.5 10.6 6.6 3.7 1.3 74 47 29 997 994 16 3 16 0.00
2012-4-24 21.3 13.2 8.2 10.5 7.2 4.0 90 69 36 994 988 23 4 23 1.40
2012-4-25 23.7 15.1 7.7 9.1 5.2 0.7 84 56 24 1003 992 17 3 17 0.00
2012-4-26 24.7 16.1 9.3 10.4 6.1 1.9 89 56 28 1005 1002 13 4 14 0.00
2012-4-27 29.2 19.6 11.2 10.2 7.0 2.3 72 46 29 1006 1003 15 3 15 0.00
2012-4-28 29.5 20.2 11.1 12.3 7.6 3.1 78 48 23 1003 1000 13 3 13 0.00
2012-4-29 22.7 17.0 12.8 14.0 9.6 5.1 83 62 46 1005 1000 16 3 16 0.00
2012-4-30 23.1 16.9 12.5 16.4 11.0 8.3 83 69 48 1003 999 13 3 13 0.10
2012-5-1 19.9 15.2 11.2 15.5 11.1 7.8 92 77 55 1003 1000 15 2 15 0.63
2012-5-2 25.7 16.7 7.5 13.2 5.7 2.2 93 54 24 1004 1000 22 3 22 0.00
2012-5-3 26.4 16.0 6.6 11.4 4.8 0.6 92 53 23 1002 996 20 3 20 0.00
2012-5-4 24.5 15.9 6.2 11.7 4.6 1.4 90 52 23 998 996 17 3 17 0.00
2012-5-5 25.7 17.6 10.1 11.7 9.9 5.9 91 64 34 998 995 20 4 20 0.00
2012-5-6 21.3 16.3 13.8 14.2 11.6 7.8 96 75 48 999 996 14 4 14 0.94
2012-5-7 26.2 17.9 12.6 15.1 10.2 5.2 95 66 31 1005 996 19 3 19 0.76
2012-5-8 27.9 19.2 12.2 11.3 7.7 6.2 75 50 29 1006 1004 19 3 19 0.00
2012-5-9 28.2 19.3 12.8 11.2 7.8 4.7 77 51 30 1008 1004 13 2 13 0.00
2012-5-10 31.1 22.1 9.7 11.8 8.4 3.0 73 44 29 1010 1007 13 3 13 0.00
2012-5-11 33.9 23.3 12.2 14.6 9.8 4.5 88 48 21 1010 1008 14 2 14 0.00
2012-5-12 33.4 23.2 13.2 15.6 8.7 5.2 88 46 21 1009 1001 11 2 11 0.00
2012-5-13 30.4 18.6 11.0 11.0 7.8 3.9 72 52 28 1001 996 32 5 32 0.00
2012-5-14 22.7 15.4 9.1 4.0 -0.1 -3.0 60 37 23 998 996 27 6 27 0.00
2012-5-15 24.5 16.0 5.9 10.1 3.6 -1.9 81 46 27 998 992 17 4 17 0.00
2012-5-16 25.8 17.3 10.1 11.9 5.0 -2.4 86 51 18 1000 991 20 4 20 0.00
2012-5-17 27.8 16.8 5.2 4.8 -0.1 -3.7 69 37 14 1002 999 26 4 26 0.00
2012-5-18 25.2 16.6 8.3 3.7 0.3 -3.4 58 35 21 1001 998 11 3 11 0.00
2012-5-19 27.7 16.8 7.9 6.7 3.5 -0.8 66 43 23 1001 998 14 3 14 0.00
2012-5-20 19.4 14.8 10.4 11.9 4.4 -0.7 95 53 30 998 990 17 3 17 1.27
2012-5-21 26.9 16.7 12.7 14.8 10.1 6.0 95 69 31 990 985 19 4 19 0.74
2012-5-22 25.8 15.8 11.0 15.1 9.7 6.7 88 69 33 997 988 15 3 15 0.84
2012-5-23 25.4 17.2 11.4 14.5 10.9 8.4 91 69 41 1003 996 15 2 15 0.00
2012-5-24 33.7 22.1 13.6 15.2 11.3 7.8 80 55 22 1003 1000 15 3 15 0.00
2012-5-25 32.8 21.2 14.2 14.2 9.7 5.3 86 54 20 1002 1000 19 4 19 0.33
2012-5-26 30.6 20.2 12.4 10.5 7.5 4.4 78 47 21 1003 1000 13 3 13 0.00
2012-5-27 29.7 20.8 11.0 8.1 4.6 1.9 63 37 20 1003 1000 19 3 19 0.00
2012-5-28 25.0 17.2 12.5 13.0 9.3 5.1 84 61 41 1001 998 16 3 16 0.41
2012-5-29 27.1 19.2 10.9 15.0 10.3 7.6 93 61 33 1002 998 15 3 15 0.00
2012-5-30 30.3 21.0 11.2 15.9 10.7 8.0 92 57 29 1006 1000 20 3 20 0.00
2012-5-31 30.7 20.7 12.9 14.8 12.6 9.8 90 63 35 1006 1002 18 3 18 0.00
2012-6-1 28.0 21.1 16.6 15.9 14.4 11.8 89 68 42 1005 1001 19 3 19 0.00
2012-6-2 30.3 22.8 17.1 16.2 14.4 11.1 88 62 33 1004 1002 19 4 19 0.00
2012-6-3 31.3 23.3 17.4 16.7 11.5 4.1 90 53 21 1004 999 19 4 19 0.00
2012-6-4 29.8 21.4 17.2 16.2 11.2 3.3 72 54 25 999 993 18 4 18 0.00
2012-6-5 31.9 22.3 13.2 14.2 9.0 4.1 86 48 20 999 994 20 4 20 0.00
2012-6-6 31.1 21.3 11.5 13.4 8.6 4.4 77 49 21 1000 998 12 3 12 0.00
2012-6-7 29.9 22.2 16.0 16.3 11.6 5.6 89 56 31 1001 998 21 4 21 0.00
2012-6-8 32.3 23.3 16.1 9.4 5.2 1.4 59 33 18 1001 996 22 5 23 0.00
2012-6-9 29.2 23.8 18.0 17.8 10.0 2.0 72 43 26 999 996 12 3 13 0.00
2012-6-10 30.9 23.7 17.2 18.6 11.5 4.7 88 51 20 999 994 19 4 19 0.00
2012-6-11 31.9 23.6 17.8 16.4 13.2 9.6 81 55 28 995 990 16 4 16 0.00
2012-6-12 31.0 22.3 16.9 17.3 10.4 3.1 85 50 19 996 988 20 4 20 0.00
2012-6-13 30.5 22.2 14.3 9.7 6.8 3.2 65 40 21 1002 994 19 4 19 0.00
2012-6-14 32.6 22.7 13.0 10.3 6.0 0.7 73 39 18 1005 1001 17 4 17 0.00
2012-6-15 35.4 24.1 11.4 8.9 5.0 1.9 60 33 16 1006 1004 17 4 17 0.00
2012-6-16 37.2 26.5 14.3 10.8 6.9 3.4 66 33 16 1006 1003 15 3 15 0.00
2012-6-17 38.6 28.0 15.8 11.8 7.4 2.2 58 32 15 1004 1001 20 3 20 0.00
2012-6-18 38.0 28.4 18.0 14.7 9.8 6.9 65 35 16 1002 1000 14 3 14 0.00
2012-6-19 39.1 28.7 18.2 15.4 11.6 7.1 74 41 16 1002 1000 14 3 14 0.00
2012-6-20 38.2 27.8 18.4 13.6 7.9 2.2 59 33 16 1001 997 14 3 14 0.00
2012-6-21 37.6 28.2 19.2 14.1 8.7 3.5 58 31 19 999 994 17 4 17 0.00
2012-6-22 37.9 29.9 19.0 15.8 12.6 9.4 67 37 21 1003 998 13 4 13 0.00
2012-6-23 37.0 27.5 15.9 11.4 6.8 -0.3 57 30 14 1005 1002 28 4 28 0.00
2012-6-24 38.6 26.7 15.0 13.7 6.1 -0.4 65 30 13 1004 1000 20 4 20 0.00
2012-6-25 36.4 26.6 18.4 16.2 10.9 4.7 74 44 16 1001 996 15 3 15 0.00
2012-6-26 38.2 27.9 17.3 17.1 13.5 10.1 81 47 19 1002 998 17 3 17 0.00
2012-6-27 40.6 29.6 19.9 15.1 11.8 8.2 71 38 15 1003 1000 16 3 16 0.00
2012-6-28 35.8 28.2 20.4 20.0 14.1 7.6 83 47 20 1002 999 16 3 16 0.00
2012-6-29 35.9 27.6 18.7 18.0 14.7 13.2 83 49 27 1001 1000 17 3 17 0.00
2012-6-30 34.6 27.8 19.5 14.8 12.8 7.3 59 40 22 1002 1000 8 0 10 0.00
2012-7-1 39.6 30.7 19.4 16.9 10.9 6.9 65 34 15 1001 998 15 4 15 0.00
2012-7-2 37.1 29.1 19.5 15.0 11.9 8.5 69 38 19 1002 998 23 5 23 0.00
2012-7-3 36.9 30.2 19.3 14.6 11.3 5.6 70 35 17 1002 998 19 4 19 0.00
2012-7-9 21.8 21.8 21.8 19.6 19.6 19.6 87 87 87 999 999 93 2 0 1.24
2012-7-10 21.8 21.8 21.8 19.6 19.6 19.6 87 87 87 999 999 0 0 0 0.00
2012-7-11 21.8 21.8 21.8 19.6 19.6 19.6 87 87 87 999 999 0 0 0 0.00
2012-7-12 21.8 21.8 21.8 19.6 19.6 19.6 87 87 87 999 999 0 0 0 0.00
2012-7-13 36.7 26.6 21.8 19.6 12.6 -2.9 87 53 16 999 996 21 3 21 0.00
2012-7-14 35.9 27.1 19.9 19.3 14.4 9.8 73 48 27 998 994 20 4 20 0.00
2012-7-15 34.6 28.3 19.3 18.9 6.1 1.9 73 27 14 1001 996 24 5 24 0.00
2012-7-16 35.9 26.3 17.9 10.5 8.6 6.2 52 35 19 1006 1000 22 4 22 0.00
2012-7-17 38.8 27.4 16.1 7.9 5.5 2.3 52 28 13 1007 1002 20 3 20 0.00
2012-7-18 38.8 28.0 16.5 8.6 5.4 2.8 44 26 15 1004 1000 22 4 22 0.00
2012-7-19 38.5 27.4 16.0 17.1 7.4 3.2 67 33 13 1002 998 14 3 14 0.00
2012-7-20 35.4 26.9 18.4 15.9 12.7 9.1 69 44 21 1000 997 19 4 19 0.00
2012-7-21 37.0 26.9 20.0 19.9 16.4 12.4 88 58 26 999 996 19 3 19 0.00
2012-7-22 32.6 24.8 17.9 16.3 9.1 4.9 70 39 22 999 996 23 6 23 0.00
2012-7-23 30.2 23.2 19.6 9.6 6.8 4.9 45 35 26 999 996 37 8 37 0.00
2012-7-24 29.6 25.0 22.2 12.5 9.0 5.8 47 36 31 998 996 30 4 30 0.00
2012-7-25 35.4 26.8 18.3 14.1 10.6 7.9 65 39 21 1001 997 24 3 24 0.00
2012-7-26 37.4 27.3 17.8 11.3 8.3 5.3 53 33 16 1002 1000 24 3 24 0.00
2012-7-27 39.6 28.7 17.1 13.9 8.2 1.5 66 33 13 1002 998 20 3 20 0.00
2012-7-28 39.6 29.0 20.1 12.9 6.4 3.1 49 26 14 999 995 19 4 19 0.00
2012-7-29 39.1 29.0 21.0 17.4 13.3 9.1 66 41 18 1000 995 22 4 22 0.00
2012-7-30 38.7 28.5 19.2 15.2 8.6 3.6 65 33 15 1001 998 19 3 19 0.00
2012-7-31 36.7 27.3 17.7 16.5 10.3 5.9 69 37 19 1001 998 22 4 22 0.00
2012-8-1 41.5 29.7 18.7 17.8 10.6 4.8 78 39 11 1000 997 20 3 23 0.00
2012-8-2 40.4 28.7 18.0 12.2 8.4 3.8 57 32 12 999 998 19 3 19 0.00
2012-8-3 36.7 27.1 18.8 18.7 13.3 7.5 78 45 21 1000 998 14 3 14 0.00
2012-8-4 36.6 27.8 19.4 21.3 16.4 11.5 89 56 23 1000 997 13 3 14 0.00
2012-8-5 38.4 28.9 22.2 20.8 17.4 12.6 83 55 23 999 997 19 4 19 0.00
2012-8-6 34.5 27.9 23.5 21.8 18.8 12.0 81 60 31 1004 998 17 3 17 0.00
2012-8-7 40.7 29.8 20.5 19.2 10.2 -0.8 81 38 12 1005 1002 15 3 15 0.00
2012-8-8 40.4 26.8 14.0 9.2 4.2 -2.7 44 25 14 1004 1000 19 3 19 0.00
2012-8-9 38.5 27.2 15.8 12.5 7.6 2.5 45 31 17 1002 999 20 3 20 0.00
2012-8-10 41.2 29.3 18.7 11.2 7.8 1.9 61 30 14 1001 997 21 4 21 0.00
2012-8-11 39.0 28.7 19.5 7.3 4.1 0.5 33 22 12 1000 996 26 4 26 0.00
2012-8-12 35.8 26.3 17.4 12.0 5.9 3.3 48 29 16 998 996 13 3 13 0.00
2012-8-13 37.7 26.5 21.3 21.0 15.3 11.2 83 53 21 998 994 17 3 17 0.74
2012-8-14 36.2 27.1 20.2 21.4 15.9 10.3 90 56 26 999 996 17 3 17 0.00
2012-8-15 36.9 26.4 16.3 16.5 12.3 7.7 79 47 18 1001 998 20 3 20 0.00
2012-8-16 20.3 19.4 19.3 13.7 12.9 12.9 68 66 66 1001 1000 6 0 6 0.00
2012-8-17 19.4 19.0 18.4 14.7 13.6 12.9 79 71 66 1000 1000 0 0 0 0.00
2012-8-18 26.4 20.6 18.4 14.7 13.2 9.2 79 66 34 1004 1000 4 0 4 0.00
2012-8-19 43.2 31.9 22.1 10.3 7.1 3.4 44 24 13 1006 1002 20 4 20 0.00
2012-8-20 40.5 30.1 20.3 13.0 9.8 7.2 49 31 15 1006 1002 22 3 22 0.00
2012-8-21 42.3 29.6 20.1 17.3 12.3 8.1 67 39 18 1004 1000 21 4 21 0.00
2012-8-22 40.2 28.9 19.5 16.3 10.4 7.1 62 36 15 1002 1000 16 3 16 0.00
2012-8-23 37.7 28.2 19.9 21.6 15.3 7.2 82 51 17 1002 999 16 3 16 0.00
2012-8-24 36.6 28.2 21.6 21.9 18.4 10.7 90 61 23 1001 998 22 4 22 0.00
2012-8-25 37.8 28.3 22.7 22.2 18.5 14.2 90 61 26 1000 997 16 4 16 0.00
2012-8-26 35.5 27.2 22.6 21.9 16.3 8.1 86 56 22 999 995 20 4 20 0.00
2012-8-27 38.2 26.9 17.3 16.6 8.4 2.9 81 39 12 1004 999 17 4 17 0.00
2012-8-28 37.4 26.8 17.3 6.9 3.2 -1.3 41 23 13 1004 1002 19 3 19 0.00
2012-8-29 37.9 26.3 16.3 14.7 8.9 4.7 64 37 17 1004 1001 21 3 21 0.00
2012-8-30 36.3 26.2 17.9 15.1 12.3 8.1 69 46 21 1003 1000 15 3 15 0.00
2012-8-31 26.8 21.6 18.2 20.2 12.9 6.1 82 61 30 1000 995 15 2 15 0.00
2012-9-1 28.9 19.7 14.7 16.2 9.7 6.4 76 54 31 1001 994 20 3 20 0.10
2012-9-2 20.4 18.3 16.2 14.3 10.6 6.3 85 61 45 1004 999 13 2 13 0.23
2012-9-3 28.2 20.6 16.5 17.9 13.7 9.0 95 68 32 1000 996 15 4 15 1.40
2012-9-4 26.9 20.4 16.8 16.8 12.4 9.8 88 61 40 1000 995 17 4 17 0.61
2012-9-5 31.6 21.2 16.5 17.6 15.3 10.8 90 73 30 1001 996 19 2 19 0.23
2012-9-6 33.6 23.6 16.1 19.9 14.7 10.0 94 63 26 1005 1000 16 2 16 0.00
2012-9-7 35.8 25.2 18.5 14.2 11.3 6.7 71 45 18 1007 1004 16 3 16 0.00
2012-9-8 34.9 24.8 16.7 15.8 11.7 7.6 78 49 20 1006 1002 17 2 17 0.00
2012-9-9 34.3 23.6 14.5 13.7 9.3 2.0 80 47 14 1004 1000 18 3 18 0.00
2012-9-10 34.6 23.4 15.6 19.1 12.9 9.5 88 57 25 1004 1002 17 3 17 0.00
2012-9-11 33.7 23.1 14.2 15.3 10.8 6.3 79 52 19 1005 1001 19 3 19 0.00
2012-9-12 31.9 22.4 16.1 18.9 14.5 9.8 89 65 28 1002 990 17 3 17 0.00
2012-9-13 27.0 20.9 16.7 16.9 5.4 1.4 79 38 23 991 986 28 7 28 0.00
2012-9-14 19.3 16.7 14.3 6.8 4.1 2.5 51 43 37 993 988 20 3 20 0.00
2012-9-15 31.2 21.9 14.6 10.6 7.8 5.4 67 42 25 999 992 20 4 20 0.00
2012-9-16 33.5 22.9 16.1 8.7 5.3 2.9 54 34 17 1000 998 20 4 20 0.00
2012-9-17 30.9 20.8 12.1 12.2 7.1 3.6 69 45 21 1002 998 20 3 21 0.00
2012-9-18 30.2 20.9 13.4 15.8 11.6 7.2 86 59 25 1001 998 20 2 20 0.00
2012-9-19 24.2 19.9 17.7 18.1 16.6 15.2 90 82 60 1000 996 11 3 11 0.00
2012-9-20 23.5 18.2 15.6 17.3 2.8 -1.8 81 37 23 1007 996 11 4 11 0.00
2012-9-21 30.6 19.1 11.4 9.9 2.0 -2.6 72 34 18 1007 1004 11 3 11 0.00
2012-9-22 29.0 21.0 14.9 17.6 15.2 9.9 94 72 43 1003 1000 15 4 15 0.00
2012-9-23 31.2 24.1 20.8 18.6 16.4 13.8 82 64 37 1003 999 15 4 15 0.00
2012-9-24 29.6 23.1 17.3 19.4 17.7 13.0 88 73 44 999 992 17 3 17 0.00
2012-9-25 29.8 22.1 16.7 17.6 14.2 8.7 95 65 30 998 995 17 4 17 0.00
2012-9-26 27.9 23.0 20.1 18.8 17.3 13.9 88 71 45 998 996 21 5 21 0.00
2012-9-27 25.2 21.6 18.7 19.5 17.4 14.9 92 77 65 1002 996 13 2 13 0.10
2012-9-28 31.5 23.1 18.1 20.8 17.7 14.1 95 74 37 1003 1001 11 2 11 0.00
2012-9-29 31.1 24.7 21.0 20.6 12.6 5.6 86 50 26 1002 997 20 4 21 0.00
2012-9-30 28.9 20.8 15.9 18.6 16.1 12.9 96 77 40 1003 999 14 2 14 1.17
2012-10-1 27.3 19.3 15.1 18.1 15.4 12.6 98 81 43 1003 1000 11 2 11 0.00
2012-10-2 25.8 18.1 14.2 20.1 14.8 11.0 97 83 42 1005 1002 19 2 19 0.30
2012-10-3 29.2 18.7 12.5 16.4 12.5 7.9 98 72 30 1006 1004 14 2 14 0.00
2012-10-4 27.4 18.4 13.1 15.8 12.9 11.5 93 74 41 1006 1002 16 2 16 0.00
2012-10-5 28.8 18.9 13.3 18.1 13.6 9.5 98 75 34 1008 1004 13 2 13 0.00
2012-10-6 28.1 19.0 13.3 20.2 14.4 12.2 98 78 39 1008 1004 13 3 13 0.00
2012-10-7 26.3 20.8 17.6 20.3 16.8 13.6 95 80 49 1006 1000 12 3 12 0.00
2012-10-8 31.0 21.0 15.7 17.7 14.4 10.7 94 70 33 1002 1000 13 2 13 0.00
2012-10-9 22.9 17.8 15.2 21.3 16.3 13.6 98 91 76 1001 994 13 2 13 1.37
2012-10-10 30.6 19.8 14.7 20.4 16.3 13.1 98 83 40 997 994 11 2 11 0.00
2012-10-11 27.1 18.9 14.2 21.0 16.1 13.5 98 85 48 997 995 13 2 13 0.53
2012-10-12 26.0 19.2 15.1 20.6 16.2 13.9 98 85 51 999 993 17 2 17 0.20
2012-10-13 25.6 18.7 15.2 16.9 14.8 13.1 97 80 50 998 994 11 3 11 0.00
2012-10-14 27.8 18.3 13.7 17.9 12.8 6.7 98 75 32 996 991 13 2 13 0.00
2012-10-15 21.4 16.7 13.7 16.6 14.4 11.8 98 87 60 992 986 18 4 18 1.70
2012-10-16 24.6 15.7 9.5 13.3 8.9 3.7 97 69 32 1003 990 19 3 19 0.13
2012-10-17 25.8 16.5 10.9 13.1 10.1 5.8 89 68 35 1008 1003 17 3 17 0.00
2012-10-18 26.7 17.8 12.5 15.3 11.9 8.6 96 72 34 1007 1004 12 2 12 0.00
2012-10-19 28.6 18.1 11.7 15.6 11.2 7.2 94 69 30 1007 1005 11 2 11 0.00
2012-10-20 29.2 18.8 12.7 14.3 10.3 5.6 90 62 30 1006 1003 10 2 10 0.00
2012-10-21 30.1 19.9 13.3 14.5 11.5 9.1 82 61 29 1004 1000 14 2 14 0.00
2012-10-22 28.4 20.6 15.9 17.5 13.9 11.2 94 68 39 1003 1000 9 2 9 0.00
2012-10-23 27.9 18.4 13.0 17.5 13.4 10.8 98 77 37 1004 1002 9 2 10 0.00
2012-10-24 27.6 18.3 13.6 15.6 12.7 10.1 95 72 42 1002 998 9 2 9 0.00
2012-10-25 25.8 18.1 13.8 18.9 14.6 12.5 98 83 47 1000 997 13 2 13 0.00
2012-10-26 22.0 17.2 14.2 18.9 15.9 13.6 98 93 69 998 983 17 3 17 2.01
2012-10-27 20.9 17.9 14.9 17.6 15.4 9.9 98 86 67 982 974 22 4 22 0.97
2012-10-28 15.6 10.4 4.0 9.9 6.0 0.2 98 76 38 983 975 24 4 24 3.28
2012-10-29 15.7 8.1 2.7 10.6 3.4 -0.1 98 76 37 995 983 19 2 19 0.23
2012-10-30 15.7 10.0 4.1 6.3 2.9 -0.8 78 63 45 996 993 14 3 14 0.00
2012-10-31 15.1 12.3 10.3 14.8 9.4 4.9 98 84 62 993 972 28 6 28 0.71
2012-11-1 21.9 14.7 11.0 15.6 11.7 8.2 98 84 48 988 971 22 3 22 0.74
2012-11-2 22.5 14.5 9.1 18.1 10.3 7.1 98 80 42 1000 988 13 2 13 0.00
2012-11-3 18.6 14.4 9.1 15.0 12.1 8.2 98 86 70 1001 998 11 2 11 0.00
2012-11-4 19.9 17.8 15.5 18.9 17.3 14.3 98 97 90 999 988 16 3 16 0.76
2012-11-5 21.6 17.4 11.7 18.7 12.0 2.8 98 73 35 998 986 28 5 28 0.20
2012-11-6 22.3 14.9 10.6 11.9 6.8 2.2 84 61 32 1003 998 17 3 18 0.00
2012-11-7 23.1 12.3 6.0 9.9 4.1 -0.5 86 61 29 1013 1003 10 2 10 0.00
2012-11-8 22.1 10.6 4.0 9.1 4.3 1.3 91 70 31 1012 1006 9 2 9 0.00
2012-11-9 21.9 12.7 6.8 11.7 8.2 5.0 98 77 38 1006 1002 8 2 8 0.00
2012-11-10 17.5 14.6 11.6 16.1 11.6 7.3 98 83 70 1003 995 20 5 21 0.00
2012-11-11 18.3 16.5 14.3 17.4 15.9 14.0 98 96 85 1002 990 25 5 25 1.60
2012-11-12 15.3 14.5 13.9 15.0 14.2 13.6 98 98 98 1007 999 19 4 19 6.35
2012-11-13 23.5 17.8 14.7 18.9 15.2 11.0 98 85 67 1010 1006 20 3 20 0.00
2012-11-14 21.6 16.3 13.4 11.1 8.2 4.8 74 60 43 1009 1006 24 7 24 0.00
2012-11-15 19.5 13.7 9.9 6.2 4.9 3.8 67 56 39 1007 1002 24 7 24 0.00
2012-11-16 20.3 12.4 8.3 6.3 4.8 3.9 78 61 38 1004 1002 14 4 14 0.00
2012-11-17 9.3 8.6 8.2 5.6 5.1 4.5 82 79 75 1003 1001 7 2 7 0.00
2012-11-18 16.2 14.0 8.2 11.1 10.2 5.1 82 78 71 1001 995 10 3 10 0.00
2012-11-19 16.9 14.6 12.9 11.4 9.8 8.8 83 73 68 997 994 17 4 17 0.00
2012-11-20 18.5 13.9 10.3 11.3 9.3 6.4 87 74 59 1002 996 13 2 13 0.00
2012-11-21 21.5 12.0 7.4 10.4 7.5 5.2 98 77 42 1005 1000 9 2 9 0.00
2012-11-22 22.1 11.6 5.7 14.6 9.2 5.4 98 87 48 1007 1004 8 1 8 0.00
2012-11-23 21.9 12.8 8.6 13.8 10.1 8.3 98 86 47 1009 1005 9 2 9 0.00
2012-11-24 21.7 12.3 7.9 16.6 10.4 7.6 98 90 51 1010 1007 8 2 8 0.00
2012-11-25 19.7 12.9 8.8 15.2 11.6 8.5 98 92 70 1009 1006 9 3 9 0.00
2012-11-26 20.1 13.8 11.7 15.5 12.5 11.4 98 92 67 1007 999 10 3 10 0.00
2012-11-27 17.5 15.4 12.5 16.6 14.4 12.2 98 94 83 1000 986 23 6 23 0.23
2012-11-28 17.5 13.7 11.7 16.5 12.1 7.9 98 90 74 987 972 25 6 25 1.70
2012-11-29 11.9 9.1 5.9 9.3 7.6 5.2 98 91 78 977 969 27 5 27 1.93
2012-11-30 12.1 8.4 5.0 9.7 6.5 2.2 98 88 63 988 976 20 4 20 0.20
2012-12-1 12.6 8.8 6.6 9.1 7.0 4.5 98 89 67 993 986 17 5 18 0.63
2012-12-2 15.8 8.9 2.7 11.8 6.6 1.9 98 87 49 993 988 17 3 17 1.47
2012-12-3 15.2 5.7 0.6 4.3 -1.8 -6.7 98 65 25 1001 992 24 3 24 0.00
2012-12-4 13.3 8.9 4.9 9.2 2.9 -4.4 90 67 50 999 984 32 6 32 0.00
2012-12-5 15.6 5.7 1.5 8.1 1.4 -2.2 97 76 37 989 982 32 4 32 0.10
2012-12-6 16.1 5.9 0.6 2.4 -0.5 -3.4 86 66 28 997 988 11 3 11 0.00
2012-12-7 12.1 6.1 1.4 6.9 0.6 -5.4 98 69 46 997 983 15 3 15 0.74
2012-12-8 11.1 4.6 0.3 5.5 -1.8 -6.9 98 68 36 997 984 26 5 26 0.13
2012-12-9 12.7 3.9 -0.5 -4.6 -7.6 -11.4 69 46 20 1003 997 16 3 16 0.00
2012-12-10 10.9 5.8 1.6 6.3 0.8 -7.4 98 73 47 1001 987 15 3 15 0.30
2012-12-11 15.2 4.7 -2.0 3.7 -4.7 -8.2 97 54 26 999 991 13 2 13 0.00
2012-12-12 13.4 4.4 -2.1 -2.7 -5.9 -7.9 71 49 27 1005 998 10 3 10 0.00
2012-12-13 8.2 5.5 1.3 3.8 -2.8 -7.3 77 55 45 1005 1001 17 4 17 0.00
2012-12-14 16.5 10.9 7.1 12.3 8.6 3.7 98 85 67 1002 998 19 5 19 0.10
2012-12-15 14.2 12.7 10.2 13.9 12.3 9.9 98 97 91 1000 996 20 5 20 1.80
2012-12-16 19.7 12.3 7.9 14.9 10.9 7.6 98 92 65 1000 998 11 3 11 0.00
2012-12-17 16.3 10.4 7.2 13.8 9.7 6.9 98 96 80 998 993 14 3 14 0.51
2012-12-18 17.4 8.2 3.8 13.9 6.1 3.4 98 89 51 998 993 10 2 10 0.00
2012-12-19 17.1 6.1 0.7 7.8 0.7 -3.1 98 74 27 1006 998 9 2 9 0.00
2012-12-20 10.9 5.2 0.0 3.3 0.0 -3.7 86 70 42 1005 998 9 2 9 0.00
2012-12-21 13.8 6.8 2.2 9.1 4.7 -1.0 98 87 56 998 994 13 2 13 0.63
2012-12-22 16.9 6.4 1.3 9.5 3.2 1.0 98 83 39 1005 998 9 2 9 0.00
2012-12-23 11.6 8.2 1.9 8.2 5.8 1.6 98 85 74 1007 1002 11 3 11 0.00
2012-12-24 18.6 10.2 3.6 12.5 8.7 3.3 98 91 60 1009 1005 10 2 10 0.00
2012-12-25 13.6 12.7 11.9 12.9 12.1 11.2 98 96 86 1008 1001 14 4 14 0.00
2012-12-26 14.8 12.7 7.9 14.4 12.1 7.6 98 97 93 1003 998 11 2 14 0.23
2012-12-27 15.4 10.7 6.3 14.0 9.8 6.0 98 95 78 1006 1001 17 2 17 0.00
2012-12-28 20.1 11.9 4.8 13.1 5.2 -1.9 98 67 33 1011 1000 28 4 28 0.00
2012-12-29 18.7 6.9 0.9 3.8 -2.2 -6.1 80 56 25 1011 1006 15 3 15 0.00
2012-12-30 16.6 6.1 -0.4 4.7 -0.3 -4.8 96 66 34 1009 1004 9 2 9 0.00
2012-12-31 17.7 6.2 1.0 9.5 0.9 -3.2 98 75 31 1009 1004 7 2 7 0.00
2013-1-1 13.4 7.3 1.1 7.9 4.5 -2.1 90 83 64 1005 1000 13 4 13 0.00